createdAt,value
2022-08-23T00:02:26.558Z,3.80
2022-08-23T00:05:09.425Z,3.80
2022-08-23T00:07:42.928Z,3.30
2022-08-23T00:10:13.007Z,3.80
2022-08-23T00:12:40.435Z,3.63
2022-08-23T00:15:09.818Z,3.97
2022-08-23T00:17:37.162Z,4.07
2022-08-23T00:20:06.710Z,3.40
2022-08-23T00:22:33.677Z,3.93
2022-08-23T00:25:00.871Z,3.30
2022-08-23T00:27:27.721Z,3.83
2022-08-23T00:29:55.883Z,3.90
2022-08-23T00:32:26.302Z,3.17
2022-08-23T00:34:53.268Z,3.83
2022-08-23T00:37:21.416Z,3.87
2022-08-23T00:39:48.018Z,3.87
2022-08-23T00:42:45.347Z,3.60
2022-08-23T00:45:35.685Z,3.93
2022-08-23T00:48:04.145Z,3.50
2022-08-23T00:50:40.888Z,3.77
2022-08-23T00:53:20.348Z,3.50
2022-08-23T00:55:50.077Z,3.77
2022-08-23T00:58:19.786Z,4.10
2022-08-23T01:00:50.049Z,4.03
2022-08-23T01:03:18.677Z,3.90
2022-08-23T01:06:27.316Z,3.70
2022-08-23T01:08:59.046Z,3.80
2022-08-23T01:11:40.688Z,3.63
2022-08-23T01:14:15.153Z,3.93
2022-08-23T01:17:17.497Z,3.77
2022-08-23T01:19:57.680Z,3.63
2022-08-23T01:22:41.415Z,3.67
2022-08-23T01:25:11.435Z,4.30
2022-08-23T01:27:39.550Z,3.90
2022-08-23T01:30:09.005Z,3.80
2022-08-23T01:32:41.687Z,3.87
2022-08-23T01:35:09.210Z,4.90
2022-08-23T01:37:36.358Z,4.13
2022-08-23T01:40:04.219Z,3.93
2022-08-23T01:42:31.113Z,4.17
2022-08-23T01:44:58.560Z,4.00
2022-08-23T01:47:25.173Z,4.20
2022-08-23T01:49:52.071Z,4.17
2022-08-23T01:52:19.613Z,3.77
2022-08-23T01:54:46.592Z,4.10
2022-08-23T01:57:13.478Z,4.50
2022-08-23T01:59:40.101Z,3.97
2022-08-23T02:02:06.741Z,3.97
2022-08-23T02:04:33.396Z,4.10
2022-08-23T02:06:59.934Z,3.90
2022-08-23T02:09:26.545Z,3.67
2022-08-23T02:11:53.572Z,3.83
2022-08-23T02:14:21.627Z,4.03
2022-08-23T02:17:03.105Z,4.00
2022-08-23T02:19:31.756Z,4.43
2022-08-23T02:21:58.526Z,4.20
2022-08-23T02:24:25.747Z,4.13
2022-08-23T02:26:56.699Z,4.23
2022-08-23T02:29:26.669Z,4.10
2022-08-23T02:31:53.959Z,4.13
2022-08-23T02:34:22.323Z,3.90
2022-08-23T02:36:51.520Z,3.90
2022-08-23T02:39:18.758Z,4.27
2022-08-23T02:41:45.323Z,4.00
2022-08-23T02:44:12.002Z,4.00
2022-08-23T02:46:39.455Z,3.97
2022-08-23T02:49:06.663Z,4.17
2022-08-23T02:51:34.051Z,4.17
2022-08-23T02:54:03.205Z,4.53
2022-08-23T02:56:30.539Z,4.30
2022-08-23T02:58:57.111Z,4.00
2022-08-23T03:01:27.784Z,4.33
2022-08-23T03:03:55.122Z,4.07
2022-08-23T03:06:25.763Z,4.03
2022-08-23T03:08:54.560Z,4.30
2022-08-23T03:11:22.023Z,4.20
2022-08-23T03:13:49.620Z,4.20
2022-08-23T03:16:17.081Z,3.57
2022-08-23T03:18:43.736Z,4.50
2022-08-23T03:21:11.157Z,3.97
2022-08-23T03:23:39.257Z,3.97
2022-08-23T03:26:08.734Z,4.43
2022-08-23T03:28:36.462Z,4.43
2022-08-23T03:31:03.208Z,4.10
2022-08-23T03:33:29.838Z,4.77
2022-08-23T03:36:04.367Z,4.33
2022-08-23T03:38:30.944Z,4.43
2022-08-23T03:40:58.597Z,4.47
2022-08-23T03:43:25.175Z,3.67
2022-08-23T03:45:52.046Z,4.30
2022-08-23T03:48:18.786Z,4.70
2022-08-23T03:50:45.826Z,4.50
2022-08-23T03:53:13.152Z,4.60
2022-08-23T03:55:42.595Z,4.73
2022-08-23T03:58:10.943Z,4.10
2022-08-23T04:00:38.581Z,4.50
2022-08-23T04:03:05.437Z,4.90
2022-08-23T04:05:32.031Z,4.20
2022-08-23T04:07:58.927Z,4.37
2022-08-23T04:10:26.289Z,4.20
2022-08-23T04:12:54.968Z,3.97
2022-08-23T04:15:22.579Z,4.00
2022-08-23T04:17:49.373Z,4.10
2022-08-23T04:20:16.255Z,4.30
2022-08-23T04:22:42.807Z,4.20
2022-08-23T04:25:33.559Z,4.40
2022-08-23T04:28:00.646Z,4.20
2022-08-23T04:30:27.293Z,4.27
2022-08-23T04:32:53.950Z,4.40
2022-08-23T04:35:22.627Z,4.50
2022-08-23T04:37:49.302Z,3.93
2022-08-23T04:40:34.780Z,4.70
2022-08-23T04:43:02.354Z,4.50
2022-08-23T04:45:30.008Z,4.73
2022-08-23T04:47:56.804Z,5.00
2022-08-23T04:50:23.751Z,5.10
2022-08-23T04:52:50.556Z,4.73
2022-08-23T04:55:17.301Z,4.70
2022-08-23T04:57:44.763Z,5.17
2022-08-23T05:00:16.327Z,4.97
2022-08-23T05:02:43.792Z,5.03
2022-08-23T05:05:11.204Z,4.33
2022-08-23T05:07:42.551Z,5.03
2022-08-23T05:10:12.987Z,5.17
2022-08-23T05:12:39.934Z,5.37
2022-08-23T05:15:07.489Z,5.90
2022-08-23T05:17:34.189Z,6.37
2022-08-23T05:20:01.077Z,6.67
2022-08-23T05:22:27.799Z,5.03
2022-08-23T05:24:54.437Z,4.87
2022-08-23T05:27:21.162Z,4.73
2022-08-23T05:29:47.796Z,5.03
2022-08-23T05:32:14.391Z,5.30
2022-08-23T05:34:41.004Z,5.27
2022-08-23T05:37:07.682Z,4.77
2022-08-23T05:39:36.974Z,7.70
2022-08-23T05:42:08.599Z,6.30
2022-08-23T05:44:36.611Z,5.40
2022-08-23T05:47:10.686Z,5.17
2022-08-23T05:49:39.202Z,5.00
2022-08-23T05:52:08.212Z,4.83
2022-08-23T05:54:35.413Z,4.63
2022-08-23T05:57:02.154Z,4.53
2022-08-23T05:59:28.781Z,4.27
2022-08-23T06:01:55.922Z,4.80
2022-08-23T06:04:22.753Z,4.87
2022-08-23T06:06:49.713Z,4.50
2022-08-23T06:09:18.176Z,5.00
2022-08-23T06:11:46.328Z,5.00
2022-08-23T06:14:13.521Z,4.77
2022-08-23T06:16:43.658Z,4.70
2022-08-23T06:19:11.271Z,4.73
2022-08-23T06:21:38.638Z,4.93
2022-08-23T06:24:07.177Z,4.97
2022-08-23T06:26:45.350Z,4.87
2022-08-23T06:29:15.740Z,4.87
2022-08-23T06:31:47.143Z,5.13
2022-08-23T06:34:27.648Z,5.50
2022-08-23T06:36:57.251Z,5.10
2022-08-23T06:39:26.584Z,4.70
2022-08-23T06:41:53.763Z,4.63
2022-08-23T06:44:20.612Z,5.40
2022-08-23T06:46:48.760Z,5.60
2022-08-23T06:49:16.042Z,5.40
2022-08-23T06:51:48.785Z,5.87
2022-08-23T06:54:19.329Z,6.20
2022-08-23T06:56:46.430Z,5.80
2022-08-23T06:59:13.030Z,5.53
2022-08-23T07:01:55.143Z,6.20
2022-08-23T07:04:25.389Z,5.57
2022-08-23T07:06:52.044Z,6.20
2022-08-23T07:09:18.865Z,6.13
2022-08-23T07:11:45.841Z,6.30
2022-08-23T07:14:15.002Z,5.80
2022-08-23T07:16:45.902Z,5.70
2022-08-23T07:19:13.002Z,5.93
2022-08-23T07:21:40.002Z,6.37
2022-08-23T07:24:07.182Z,5.87
2022-08-23T07:26:34.043Z,6.20
2022-08-23T07:29:02.638Z,5.83
2022-08-23T07:31:32.394Z,5.23
2022-08-23T07:34:01.162Z,5.50
2022-08-23T07:36:30.570Z,6.33
2022-08-23T07:38:57.639Z,6.00
2022-08-23T07:41:32.738Z,5.60
2022-08-23T07:44:02.402Z,6.10
2022-08-23T07:46:31.278Z,6.13
2022-08-23T07:48:58.973Z,5.90
2022-08-23T07:51:26.863Z,6.20
2022-08-23T07:53:53.652Z,6.37
2022-08-23T07:56:21.129Z,5.97
2022-08-23T07:58:47.979Z,5.40
2022-08-23T08:01:18.000Z,5.57
2022-08-23T08:03:46.865Z,5.77
2022-08-23T08:06:19.394Z,5.77
2022-08-23T08:08:46.497Z,5.63
2022-08-23T08:11:20.066Z,6.50
2022-08-23T08:13:49.133Z,5.90
2022-08-23T08:16:26.394Z,6.10
2022-08-23T08:18:57.905Z,6.03
2022-08-23T08:21:24.624Z,6.17
2022-08-23T08:23:51.316Z,6.20
2022-08-23T08:26:18.252Z,6.03
2022-08-23T08:28:45.441Z,5.97
2022-08-23T08:31:13.328Z,5.97
2022-08-23T08:33:40.611Z,6.47
2022-08-23T08:36:07.768Z,5.80
2022-08-23T08:38:48.190Z,5.87
2022-08-23T08:41:22.185Z,6.13
2022-08-23T08:44:08.823Z,6.20
2022-08-23T08:46:45.286Z,6.20
2022-08-23T08:49:25.831Z,5.77
2022-08-23T08:52:26.823Z,5.47
2022-08-23T08:55:22.527Z,5.67
2022-08-23T08:57:49.530Z,4.83
2022-08-23T09:00:25.387Z,5.03
2022-08-23T09:02:52.182Z,4.77
2022-08-23T09:05:39.856Z,4.40
2022-08-23T09:08:46.092Z,4.17
2022-08-23T09:11:50.291Z,4.57
2022-08-23T09:14:38.590Z,4.13
2022-08-23T09:17:18.383Z,4.53
2022-08-23T09:19:50.062Z,5.00
2022-08-23T09:22:36.511Z,4.40
2022-08-23T09:25:10.354Z,5.03
2022-08-23T09:27:41.293Z,4.90
2022-08-23T09:30:09.626Z,4.27
2022-08-23T09:32:42.024Z,5.10
2022-08-23T09:35:28.814Z,4.60
2022-08-23T09:38:20.280Z,4.50
2022-08-23T09:40:50.428Z,4.53
2022-08-23T09:43:27.025Z,4.20
2022-08-23T09:45:55.771Z,4.43
2022-08-23T09:48:40.770Z,4.67
2022-08-23T09:51:23.501Z,4.20
2022-08-23T09:54:04.543Z,4.33
2022-08-23T09:56:33.913Z,3.77
2022-08-23T09:59:01.002Z,3.77
2022-08-23T10:01:35.418Z,3.80
2022-08-23T10:04:08.554Z,3.80
2022-08-23T10:06:35.287Z,3.70
2022-08-23T10:09:04.853Z,3.47
2022-08-23T10:11:39.175Z,3.67
2022-08-23T10:14:06.599Z,3.27
2022-08-23T10:17:05.225Z,3.83
2022-08-23T10:19:58.544Z,3.50
2022-08-23T10:22:28.598Z,3.30
2022-08-23T10:25:30.558Z,3.63
2022-08-23T10:28:31.229Z,4.00
2022-08-23T10:31:20.992Z,4.20
2022-08-23T10:34:06.782Z,4.37
2022-08-23T10:37:02.977Z,3.70
2022-08-23T10:39:31.193Z,3.30
2022-08-23T10:42:06.760Z,4.10
2022-08-23T10:45:05.644Z,3.70
2022-08-23T10:47:41.950Z,3.90
2022-08-23T10:50:13.069Z,3.43
2022-08-23T10:52:57.218Z,3.67
2022-08-23T10:55:54.639Z,3.60
2022-08-23T10:58:28.281Z,3.60
2022-08-23T11:00:58.785Z,3.40
2022-08-23T11:03:29.931Z,4.13
2022-08-23T11:06:27.417Z,3.80
2022-08-23T11:09:20.330Z,3.97
2022-08-23T11:12:22.191Z,3.37
2022-08-23T11:15:02.576Z,3.90
2022-08-23T11:17:50.944Z,4.20
2022-08-23T11:20:52.092Z,3.77
2022-08-23T11:23:38.270Z,3.60
2022-08-23T11:26:08.047Z,3.80
2022-08-23T11:28:43.066Z,3.60
2022-08-23T11:31:09.645Z,3.63
2022-08-23T11:33:58.934Z,3.97
2022-08-23T11:36:27.416Z,3.77
2022-08-23T11:38:55.670Z,3.70
2022-08-23T11:41:31.271Z,3.17
2022-08-23T11:44:03.832Z,3.40
2022-08-23T11:46:51.172Z,3.50
2022-08-23T11:49:30.188Z,3.67
2022-08-23T11:52:11.814Z,3.70
2022-08-23T11:54:46.730Z,3.60
2022-08-23T11:57:38.023Z,3.27
2022-08-23T12:00:28.959Z,3.67
2022-08-23T12:03:21.991Z,3.80
2022-08-23T12:05:51.587Z,3.70
2022-08-23T12:08:22.785Z,3.67
2022-08-23T12:10:49.350Z,3.50
2022-08-23T12:13:22.273Z,3.20
2022-08-23T12:16:16.903Z,3.43
2022-08-23T12:18:57.296Z,3.40
2022-08-23T12:21:28.385Z,3.25
2022-08-23T12:24:01.410Z,3.47
2022-08-23T12:26:45.223Z,3.22
2022-08-23T12:29:32.889Z,3.35
2022-08-23T12:32:14.402Z,3.25
2022-08-23T12:34:59.350Z,2.93
2022-08-23T12:38:11.169Z,2.83
2022-08-23T12:40:44.666Z,2.90
2022-08-23T12:43:23.114Z,2.90
2022-08-23T12:46:07.702Z,3.00
2022-08-23T12:48:46.175Z,3.22
2022-08-23T12:51:13.647Z,2.75
2022-08-23T12:53:45.326Z,2.70
2022-08-23T12:56:18.617Z,3.17
2022-08-23T12:58:53.529Z,3.30
2022-08-23T13:01:29.907Z,2.80
2022-08-23T13:04:02.920Z,3.10
2022-08-23T13:06:42.317Z,2.80
2022-08-23T13:09:08.984Z,2.53
2022-08-23T13:11:38.497Z,2.60
2022-08-23T13:14:26.877Z,2.58
2022-08-23T13:17:12.219Z,2.80
2022-08-23T13:19:39.040Z,2.70
2022-08-23T13:22:22.115Z,2.40
2022-08-23T13:25:28.752Z,2.50
2022-08-23T13:27:54.291Z,2.83
2022-08-23T13:30:29.579Z,2.50
2022-08-23T13:33:08.227Z,3.45
2022-08-23T13:35:40.728Z,2.80
2022-08-23T13:38:24.156Z,2.65
2022-08-23T13:41:05.006Z,2.58
2022-08-23T13:43:43.755Z,2.70
2022-08-23T13:46:22.585Z,2.87
2022-08-23T13:48:56.967Z,2.90
2022-08-23T13:51:41.345Z,2.80
2022-08-23T13:54:13.823Z,2.72
2022-08-23T13:56:47.141Z,2.60
2022-08-23T13:59:39.454Z,2.40
2022-08-23T14:02:14.040Z,2.47
2022-08-23T14:04:41.908Z,2.40
2022-08-23T14:07:10.023Z,2.53
2022-08-23T14:09:38.273Z,3.25
2022-08-23T14:12:09.728Z,3.22
2022-08-23T14:14:37.615Z,2.40
2022-08-23T14:17:10.698Z,2.20
2022-08-23T14:20:32.371Z,2.35
2022-08-23T14:22:27.878Z,2.20
2022-08-23T14:24:54.422Z,2.28
2022-08-23T14:27:21.259Z,2.53
2022-08-23T14:29:47.803Z,2.40
2022-08-23T14:32:14.350Z,2.47
2022-08-23T14:34:40.903Z,2.35
2022-08-23T14:39:54.258Z,2.30
2022-08-23T14:42:22.563Z,2.60
2022-08-23T14:44:49.510Z,2.33
2022-08-23T14:47:16.747Z,2.70
2022-08-23T14:49:43.310Z,2.22
2022-08-23T14:52:11.618Z,2.80
2022-08-23T14:54:38.247Z,2.25
2022-08-23T14:57:05.142Z,2.65
2022-08-23T14:59:31.702Z,2.08
2022-08-23T15:01:58.774Z,2.22
2022-08-23T15:04:30.385Z,2.00
2022-08-23T15:07:18.689Z,2.00
2022-08-23T15:09:51.513Z,1.85
2022-08-23T15:15:12.301Z,1.83
2022-08-23T15:17:45.502Z,1.77
2022-08-23T15:20:12.458Z,1.80
2022-08-23T15:22:44.227Z,1.92
2022-08-23T15:25:12.170Z,1.90
2022-08-23T15:27:38.745Z,1.90
2022-08-23T15:30:06.182Z,1.50
2022-08-23T15:32:33.199Z,1.90
2022-08-23T15:34:59.849Z,1.67
2022-08-23T15:37:27.291Z,1.42
2022-08-23T15:39:53.982Z,1.70
2022-08-23T15:42:21.011Z,1.90
2022-08-23T15:44:48.648Z,1.90
2022-08-23T15:47:30.425Z,1.70
2022-08-23T15:49:58.433Z,1.73
2022-08-23T15:52:25.954Z,1.88
2022-08-23T15:54:53.838Z,1.80
2022-08-23T15:57:28.622Z,2.00
2022-08-23T15:59:57.110Z,1.70
2022-08-23T16:02:23.666Z,1.50
2022-08-23T16:04:50.365Z,1.65
2022-08-23T16:07:18.362Z,1.70
2022-08-23T16:09:45.311Z,1.90
2022-08-23T16:12:11.896Z,1.75
2022-08-23T16:14:38.709Z,1.63
2022-08-23T16:17:05.865Z,1.50
2022-08-23T16:19:32.923Z,1.65
2022-08-23T16:21:59.793Z,1.83
2022-08-23T16:24:27.801Z,1.70
2022-08-23T16:26:54.576Z,1.70
2022-08-23T16:29:21.526Z,1.88
2022-08-23T16:31:48.696Z,1.73
2022-08-23T16:34:18.203Z,1.58
2022-08-23T16:36:48.439Z,1.70
2022-08-23T16:39:16.621Z,1.83
2022-08-23T16:41:43.689Z,1.50
2022-08-23T16:44:10.701Z,1.50
2022-08-23T16:46:41.159Z,1.98
2022-08-23T16:49:08.629Z,1.77
2022-08-23T16:51:35.342Z,1.83
2022-08-23T16:54:03.264Z,1.88
2022-08-23T16:56:31.730Z,2.08
2022-08-23T16:58:58.767Z,1.92
2022-08-23T17:01:25.528Z,1.63
2022-08-23T17:03:52.580Z,1.90
2022-08-23T17:06:19.188Z,2.00
2022-08-23T17:08:45.812Z,2.30
2022-08-23T17:11:19.031Z,2.05
2022-08-23T17:13:45.748Z,1.70
2022-08-23T17:16:12.772Z,2.10
2022-08-23T17:18:39.476Z,2.20
2022-08-23T17:21:07.279Z,2.08
2022-08-23T17:23:34.078Z,2.10
2022-08-23T17:26:07.743Z,2.10
2022-08-23T17:28:34.385Z,2.00
2022-08-23T17:31:01.404Z,2.25
2022-08-23T17:33:28.046Z,2.08
2022-08-23T17:35:54.638Z,2.20
2022-08-23T17:38:21.252Z,2.10
2022-08-23T17:40:48.089Z,2.10
2022-08-23T17:43:14.840Z,1.98
2022-08-23T17:45:45.131Z,1.85
2022-08-23T17:48:13.306Z,1.98
2022-08-23T17:50:43.703Z,2.17
2022-08-23T17:53:11.525Z,2.75
2022-08-23T17:55:39.603Z,2.90
2022-08-23T17:58:09.972Z,2.10
2022-08-23T18:00:39.343Z,2.17
2022-08-23T18:03:06.833Z,2.30
2022-08-23T18:05:35.269Z,2.40
2022-08-23T18:08:02.144Z,2.40
2022-08-23T18:10:30.250Z,2.63
2022-08-23T18:12:58.564Z,2.30
2022-08-23T18:15:26.866Z,2.53
2022-08-23T18:17:56.497Z,2.70
2022-08-23T18:20:26.665Z,2.27
2022-08-23T18:22:55.038Z,2.40
2022-08-23T18:25:22.558Z,3.03
2022-08-23T18:28:08.592Z,2.70
2022-08-23T18:30:36.979Z,2.20
2022-08-23T18:33:05.141Z,2.57
2022-08-23T18:35:33.395Z,2.70
2022-08-23T18:38:01.463Z,2.40
2022-08-23T18:40:29.679Z,2.50
2022-08-23T18:42:56.786Z,2.77
2022-08-23T18:45:24.039Z,3.07
2022-08-23T18:47:50.730Z,2.80
2022-08-23T18:50:18.234Z,2.40
2022-08-23T18:52:44.967Z,2.33
2022-08-23T18:55:11.697Z,2.67
2022-08-23T18:57:39.091Z,2.80
2022-08-23T19:00:06.936Z,2.67
2022-08-23T19:02:34.072Z,2.90
2022-08-23T19:05:02.884Z,3.00
2022-08-23T19:07:29.718Z,2.73
2022-08-23T19:09:56.428Z,2.50
2022-08-23T19:12:23.156Z,2.40
2022-08-23T19:14:49.733Z,2.80
2022-08-23T19:17:16.547Z,2.80
2022-08-23T19:19:43.078Z,2.83
2022-08-23T19:22:09.627Z,2.67
2022-08-23T19:24:36.166Z,2.50
2022-08-23T19:27:02.769Z,2.53
2022-08-23T19:29:29.306Z,2.60
2022-08-23T19:31:55.913Z,3.77
2022-08-23T19:34:22.902Z,2.63
2022-08-23T19:37:00.366Z,2.67
2022-08-23T19:39:28.612Z,2.50
2022-08-23T19:41:55.336Z,3.00
2022-08-23T19:44:22.692Z,2.87
2022-08-23T19:46:49.586Z,2.50
2022-08-23T19:49:16.568Z,2.60
2022-08-23T19:51:44.210Z,2.50
2022-08-23T19:54:12.968Z,2.67
2022-08-23T19:56:41.506Z,2.77
2022-08-23T19:59:19.619Z,3.10
2022-08-23T20:05:34.657Z,2.60
2022-08-23T20:08:02.054Z,2.73
2022-08-23T20:14:20.759Z,2.73
2022-08-23T20:19:43.212Z,2.80
2022-08-23T20:22:28.441Z,2.60
2022-08-23T20:28:05.065Z,2.73
2022-08-23T20:30:31.611Z,3.00
2022-08-23T20:32:58.655Z,3.20
2022-08-23T20:41:43.629Z,2.73
2022-08-23T20:44:11.458Z,3.07
2022-08-23T20:56:56.203Z,3.03
2022-08-23T20:59:22.786Z,2.90
2022-08-23T21:01:50.440Z,2.57
2022-08-23T21:04:17.895Z,2.90
2022-08-23T21:06:50.599Z,2.93
2022-08-23T21:09:20.975Z,3.03
2022-08-23T21:11:50.722Z,3.00
2022-08-23T21:14:19.579Z,3.00
2022-08-23T21:16:47.590Z,2.87
2022-08-23T21:19:14.680Z,3.30
2022-08-23T21:21:42.369Z,3.30
2022-08-23T21:24:10.347Z,3.10
2022-08-23T21:26:37.712Z,3.17
2022-08-23T21:29:05.937Z,3.20
2022-08-23T21:31:32.773Z,3.00
2022-08-23T21:34:02.400Z,4.53
2022-08-23T21:36:29.006Z,3.40
2022-08-23T21:38:55.708Z,3.40
2022-08-23T21:41:31.799Z,3.40
2022-08-23T21:43:58.842Z,3.50
2022-08-23T21:46:25.663Z,3.37
2022-08-23T21:48:52.286Z,4.07
2022-08-23T21:51:19.006Z,3.60
2022-08-23T21:53:46.667Z,3.60
2022-08-23T21:56:13.815Z,3.33
2022-08-23T21:58:40.374Z,3.87
2022-08-23T22:01:08.906Z,3.60
2022-08-23T22:03:36.071Z,3.83
2022-08-23T22:06:04.255Z,4.10
2022-08-23T22:08:31.091Z,3.67
2022-08-23T22:10:59.415Z,3.63
2022-08-23T22:13:28.715Z,3.83
2022-08-23T22:15:56.292Z,3.83
2022-08-23T22:18:22.942Z,3.83
2022-08-23T22:20:49.507Z,3.53
2022-08-23T22:23:16.342Z,3.90
2022-08-23T22:25:42.925Z,3.90
2022-08-23T22:28:09.722Z,4.00
2022-08-23T22:30:36.258Z,3.47
2022-08-23T22:33:03.135Z,3.90
2022-08-23T22:35:34.308Z,3.67
2022-08-23T22:38:13.775Z,3.83
2022-08-23T22:40:50.629Z,3.93
2022-08-23T22:43:18.540Z,3.87
2022-08-23T22:45:56.448Z,3.90
2022-08-23T22:48:23.795Z,3.80
2022-08-23T22:50:51.238Z,4.20
2022-08-23T22:53:19.284Z,3.97
2022-08-23T22:55:51.927Z,4.17
2022-08-23T22:58:18.697Z,3.70
2022-08-23T23:00:45.400Z,3.80
2022-08-23T23:03:12.374Z,4.00
2022-08-23T23:05:39.645Z,3.77
2022-08-23T23:08:25.201Z,3.87
2022-08-23T23:10:51.948Z,3.97
2022-08-23T23:13:18.493Z,4.23
2022-08-23T23:15:45.053Z,4.30
2022-08-23T23:18:11.859Z,4.37
2022-08-23T23:20:39.381Z,4.13
2022-08-23T23:23:08.174Z,4.00
2022-08-23T23:25:36.712Z,3.97
2022-08-23T23:28:04.920Z,4.07
2022-08-23T23:30:33.228Z,4.07
2022-08-23T23:33:00.849Z,4.40
2022-08-23T23:35:28.514Z,4.17
2022-08-23T23:37:56.759Z,3.93
2022-08-23T23:40:24.426Z,3.90
2022-08-23T23:42:51.790Z,4.33
2022-08-23T23:45:18.785Z,3.80
2022-08-23T23:47:46.289Z,4.37
2022-08-23T23:50:13.857Z,4.10
2022-08-23T23:52:40.760Z,4.83
2022-08-23T23:55:10.958Z,4.10
2022-08-23T23:57:37.769Z,4.40
